createdAt,value
2019-03-06T00:00:47.214Z,94857.38
2019-03-06T00:03:15.882Z,94855.84
2019-03-06T00:05:44.515Z,94860.16
2019-03-06T00:08:13.140Z,94857.13
2019-03-06T00:10:41.811Z,94855.08
2019-03-06T00:13:10.640Z,94849.84
2019-03-06T00:15:39.279Z,94851.50
2019-03-06T00:18:07.892Z,94858.59
2019-03-06T00:20:36.589Z,94860.50
2019-03-06T00:23:05.218Z,94856.86
2019-03-06T00:25:33.808Z,94861.73
2019-03-06T00:28:02.533Z,94849.81
2019-03-06T00:30:31.160Z,94852.81
2019-03-06T00:32:59.653Z,94845.14
2019-03-06T00:35:39.134Z,94851.50
2019-03-06T00:38:07.767Z,94851.16
2019-03-06T00:40:44.666Z,94851.75
2019-03-06T00:43:13.220Z,94856.20
2019-03-06T00:45:41.842Z,94849.55
2019-03-06T00:48:10.513Z,94855.47
2019-03-06T00:50:39.138Z,94850.09
2019-03-06T00:53:07.633Z,94849.07
2019-03-06T00:55:36.167Z,94849.20
2019-03-06T00:58:04.796Z,94838.74
2019-03-06T01:00:33.421Z,94847.03
2019-03-06T01:03:02.103Z,94843.14
2019-03-06T01:05:30.711Z,94845.62
2019-03-06T01:07:59.271Z,94848.34
2019-03-06T01:10:27.794Z,94844.85
2019-03-06T01:12:56.427Z,94840.45
2019-03-06T01:15:25.143Z,94842.42
2019-03-06T01:17:53.822Z,94847.41
2019-03-06T01:20:22.376Z,94843.78
2019-03-06T01:22:51.001Z,94831.67
2019-03-06T01:25:20.862Z,94831.28
2019-03-06T01:27:49.422Z,94835.88
2019-03-06T01:30:24.852Z,94831.61
2019-03-06T01:33:11.237Z,94826.83
2019-03-06T01:35:44.529Z,94821.91
2019-03-06T01:38:31.349Z,94823.71
2019-03-06T01:41:04.395Z,94828.25
2019-03-06T01:43:34.591Z,94821.03
2019-03-06T01:46:03.218Z,94820.69
2019-03-06T01:48:31.895Z,94822.99
2019-03-06T01:51:00.529Z,94828.36
2019-03-06T01:53:29.102Z,94828.72
2019-03-06T01:55:57.691Z,94838.38
2019-03-06T01:58:26.431Z,94832.06
2019-03-06T02:00:55.339Z,94838.39
2019-03-06T02:03:23.940Z,94830.11
2019-03-06T02:05:52.508Z,94836.50
2019-03-06T02:08:21.134Z,94832.92
2019-03-06T02:10:50.011Z,94831.05
2019-03-06T02:13:21.551Z,94822.20
2019-03-06T02:15:50.216Z,94821.80
2019-03-06T02:18:18.893Z,94818.91
2019-03-06T02:20:47.752Z,94817.91
2019-03-06T02:23:16.393Z,94814.87
2019-03-06T02:25:45.055Z,94818.02
2019-03-06T02:28:13.576Z,94820.67
2019-03-06T02:30:42.286Z,94823.79
2019-03-06T02:33:10.938Z,94825.68
2019-03-06T02:35:39.648Z,94828.22
2019-03-06T02:38:08.147Z,94827.89
2019-03-06T02:40:36.673Z,94823.95
2019-03-06T02:43:05.301Z,94834.41
2019-03-06T02:45:33.927Z,94831.48
2019-03-06T02:48:02.536Z,94835.62
2019-03-06T02:50:31.095Z,94821.49
2019-03-06T02:52:59.783Z,94839.67
2019-03-06T02:55:28.465Z,94835.17
2019-03-06T02:58:01.325Z,94838.63
2019-03-06T03:00:31.603Z,94844.70
2019-03-06T03:03:04.461Z,94849.83
2019-03-06T03:05:34.596Z,94853.95
2019-03-06T03:08:03.430Z,94858.87
2019-03-06T03:10:32.124Z,94856.18
2019-03-06T03:13:00.981Z,94853.67
2019-03-06T03:15:29.549Z,94847.80
2019-03-06T03:17:58.209Z,94856.28
2019-03-06T03:20:26.837Z,94853.20
2019-03-06T03:22:55.400Z,94856.20
2019-03-06T03:25:24.086Z,94861.99
2019-03-06T03:27:52.711Z,94859.69
2019-03-06T03:30:21.446Z,94867.98
2019-03-06T03:32:49.975Z,94871.66
2019-03-06T03:35:18.608Z,94868.51
2019-03-06T03:37:47.271Z,94870.02
2019-03-06T03:40:16.503Z,94872.74
2019-03-06T03:42:45.130Z,94863.03
2019-03-06T03:45:15.678Z,94863.32
2019-03-06T03:47:44.356Z,94872.32
2019-03-06T03:50:13.186Z,94864.57
2019-03-06T03:52:42.097Z,94864.09
2019-03-06T03:55:13.059Z,94866.92
2019-03-06T03:57:41.624Z,94874.88
2019-03-06T04:00:15.257Z,94864.80
2019-03-06T04:02:43.925Z,94875.30
2019-03-06T04:05:13.054Z,94869.48
2019-03-06T04:07:41.556Z,94870.07
2019-03-06T04:10:14.774Z,94865.19
2019-03-06T04:12:43.409Z,94871.30
2019-03-06T04:15:18.623Z,94885.28
2019-03-06T04:17:47.298Z,94878.24
2019-03-06T04:20:16.942Z,94878.76
2019-03-06T04:22:45.634Z,94879.02
2019-03-06T04:25:14.368Z,94877.32
2019-03-06T04:27:42.964Z,94876.84
2019-03-06T04:30:13.869Z,94876.73
2019-03-06T04:32:45.384Z,94877.83
2019-03-06T04:35:14.462Z,94885.92
2019-03-06T04:37:43.021Z,94892.73
2019-03-06T04:40:13.900Z,94901.69
2019-03-06T04:42:42.575Z,94911.34
2019-03-06T04:45:13.681Z,94909.32
2019-03-06T04:47:42.239Z,94933.41
2019-03-06T04:50:12.213Z,94932.03
2019-03-06T04:52:41.320Z,94925.43
2019-03-06T04:55:11.250Z,94933.71
2019-03-06T04:57:39.780Z,94929.34
2019-03-06T05:00:16.933Z,94937.69
2019-03-06T05:02:45.531Z,94949.78
2019-03-06T05:05:14.156Z,94936.20
2019-03-06T05:07:42.794Z,94944.55
2019-03-06T05:10:15.235Z,94943.36
2019-03-06T05:12:43.806Z,94933.84
2019-03-06T05:15:24.012Z,94938.84
2019-03-06T05:17:54.278Z,94941.73
2019-03-06T05:20:22.919Z,94951.66
2019-03-06T05:22:51.519Z,94951.89
2019-03-06T05:25:20.015Z,94947.34
2019-03-06T05:27:48.701Z,94944.30
2019-03-06T05:30:19.156Z,94945.22
2019-03-06T05:32:53.767Z,94948.34
2019-03-06T05:35:49.718Z,94939.97
2019-03-06T05:38:27.502Z,94943.51
2019-03-06T05:40:56.102Z,94944.75
2019-03-06T05:43:24.750Z,94947.91
2019-03-06T05:45:53.376Z,94956.06
2019-03-06T05:48:21.923Z,94956.58
2019-03-06T05:50:50.486Z,94953.25
2019-03-06T05:53:19.114Z,94967.17
2019-03-06T05:55:47.785Z,94969.55
2019-03-06T05:58:16.281Z,94971.33
2019-03-06T06:00:44.784Z,94971.59
2019-03-06T06:03:13.480Z,94979.10
2019-03-06T06:05:42.110Z,94973.34
2019-03-06T06:08:10.598Z,94986.17
2019-03-06T06:10:39.151Z,94992.03
2019-03-06T06:13:07.792Z,94996.47
2019-03-06T06:15:36.414Z,94991.73
2019-03-06T06:18:05.092Z,94990.52
2019-03-06T06:20:33.721Z,94988.58
2019-03-06T06:23:12.937Z,94993.19
2019-03-06T06:25:41.426Z,94999.15
2019-03-06T06:28:10.063Z,95002.37
2019-03-06T06:30:38.730Z,95002.88
2019-03-06T06:33:07.569Z,95008.79
2019-03-06T06:35:36.050Z,95010.38
2019-03-06T06:38:04.766Z,95013.91
2019-03-06T06:40:33.353Z,95015.92
2019-03-06T06:43:01.857Z,95015.41
2019-03-06T06:45:30.419Z,95015.89
2019-03-06T06:48:13.125Z,95020.25
2019-03-06T06:51:01.260Z,95029.72
2019-03-06T06:53:42.317Z,95033.70
2019-03-06T06:56:47.588Z,95026.55
2019-03-06T06:59:41.732Z,95039.67
2019-03-06T07:02:32.575Z,95036.48
2019-03-06T07:05:24.484Z,95040.00
2019-03-06T07:08:11.051Z,95042.14
2019-03-06T07:10:57.297Z,95042.88
2019-03-06T07:13:30.497Z,95050.33
2019-03-06T07:16:00.767Z,95049.73
2019-03-06T07:18:31.037Z,95040.92
2019-03-06T07:21:04.377Z,95053.84
2019-03-06T07:23:37.208Z,95051.27
2019-03-06T07:26:13.549Z,95058.41
2019-03-06T07:28:46.765Z,95067.02
2019-03-06T07:31:17.042Z,95070.03
2019-03-06T07:33:52.906Z,95073.01
2019-03-06T07:36:39.374Z,95071.08
2019-03-06T07:39:10.522Z,95071.97
2019-03-06T07:41:40.661Z,95072.34
2019-03-06T07:44:10.942Z,95077.89
2019-03-06T07:46:53.011Z,95067.80
2019-03-06T07:49:26.177Z,95070.37
2019-03-06T07:51:59.430Z,95071.14
2019-03-06T07:54:29.710Z,95072.43
2019-03-06T07:57:12.000Z,95072.65
2019-03-06T07:59:40.640Z,95080.37
2019-03-06T08:02:23.750Z,95079.73
2019-03-06T08:04:54.083Z,95077.02
2019-03-06T08:07:22.655Z,95078.48
2019-03-06T08:09:51.701Z,95093.61
2019-03-06T08:12:34.066Z,95085.63
2019-03-06T08:15:20.911Z,95085.14
2019-03-06T08:17:53.787Z,95087.56
2019-03-06T08:20:30.103Z,95085.94
2019-03-06T08:23:16.633Z,95092.63
2019-03-06T08:25:44.491Z,95097.01
2019-03-06T08:28:13.503Z,95099.15
2019-03-06T08:30:46.925Z,95103.39
2019-03-06T08:33:18.533Z,95090.68
2019-03-06T08:35:46.000Z,95084.64
2019-03-06T08:38:14.636Z,95087.56
2019-03-06T08:40:43.309Z,95092.45
2019-03-06T08:43:11.892Z,95098.30
2019-03-06T08:45:58.307Z,95091.08
2019-03-06T08:48:34.473Z,95099.48
2019-03-06T08:51:07.773Z,95102.63
2019-03-06T08:53:54.337Z,95099.55
2019-03-06T08:56:24.597Z,95099.14
2019-03-06T08:59:09.933Z,95099.44
2019-03-06T09:01:40.249Z,95104.08
2019-03-06T09:04:11.353Z,95102.81
2019-03-06T09:06:42.722Z,95112.25
2019-03-06T09:09:25.454Z,95118.76
2019-03-06T09:12:10.762Z,95115.05
2019-03-06T09:14:59.269Z,95116.73
2019-03-06T09:17:48.992Z,95108.88
2019-03-06T09:20:24.768Z,95115.73
2019-03-06T09:23:07.148Z,95114.67
2019-03-06T09:25:53.964Z,95116.77
2019-03-06T09:28:26.928Z,95111.16
2019-03-06T09:30:57.071Z,95116.50
2019-03-06T09:33:27.299Z,95117.77
2019-03-06T09:36:14.036Z,95110.36
2019-03-06T09:38:50.365Z,95114.89
2019-03-06T09:41:29.367Z,95122.08
2019-03-06T09:44:02.342Z,95121.89
2019-03-06T09:46:38.690Z,95122.36
2019-03-06T09:49:14.749Z,95119.55
2019-03-06T09:51:44.979Z,95119.11
2019-03-06T09:54:24.451Z,95119.30
2019-03-06T09:56:54.745Z,95119.55
2019-03-06T09:59:25.061Z,95113.84
2019-03-06T10:02:07.013Z,95113.20
2019-03-06T10:04:50.963Z,95110.41
2019-03-06T10:07:33.171Z,95110.02
2019-03-06T10:10:15.489Z,95109.43
2019-03-06T10:12:54.808Z,95110.63
2019-03-06T10:15:43.483Z,95107.92
2019-03-06T10:18:20.071Z,95104.09
2019-03-06T10:20:57.910Z,95106.28
2019-03-06T10:23:26.605Z,95110.86
2019-03-06T10:25:55.180Z,95112.97
2019-03-06T10:28:27.784Z,95106.91
2019-03-06T10:31:02.132Z,95108.31
2019-03-06T10:33:24.534Z,95108.46
2019-03-06T10:35:53.689Z,95110.04
2019-03-06T10:38:22.187Z,95108.94
2019-03-06T10:40:50.681Z,95102.04
2019-03-06T10:43:19.357Z,95107.54
2019-03-06T10:45:47.986Z,95099.62
2019-03-06T10:48:16.617Z,95095.17
2019-03-06T10:50:45.294Z,95097.65
2019-03-06T10:53:13.948Z,95101.11
2019-03-06T10:55:42.584Z,95096.81
2019-03-06T10:58:11.261Z,95096.23
2019-03-06T11:00:48.216Z,95089.80
2019-03-06T11:03:16.878Z,95085.96
2019-03-06T11:05:45.755Z,95074.94
2019-03-06T11:08:14.993Z,95071.69
2019-03-06T11:10:43.777Z,95072.31
2019-03-06T11:13:12.911Z,95072.84
2019-03-06T11:15:41.994Z,95076.48
2019-03-06T11:18:11.197Z,95076.23
2019-03-06T11:20:40.837Z,95078.14
2019-03-06T11:23:11.112Z,95076.06
2019-03-06T11:25:40.789Z,95079.84
2019-03-06T11:28:14.284Z,95070.78
2019-03-06T11:30:48.782Z,95067.61
2019-03-06T11:33:18.912Z,95063.98
2019-03-06T11:35:48.256Z,95070.47
2019-03-06T11:38:17.033Z,95062.29
2019-03-06T11:40:45.869Z,95063.09
2019-03-06T11:43:14.600Z,95070.77
2019-03-06T11:45:43.872Z,95065.34
2019-03-06T11:48:13.199Z,95069.07
2019-03-06T11:50:41.831Z,95071.45
2019-03-06T11:53:10.708Z,95069.41
2019-03-06T11:55:39.440Z,95073.85
2019-03-06T11:58:10.609Z,95064.45
2019-03-06T12:00:46.488Z,95058.20
2019-03-06T12:03:17.655Z,95065.78
2019-03-06T12:05:47.081Z,95065.55
2019-03-06T12:08:18.174Z,95070.13
2019-03-06T12:10:47.304Z,95073.42
2019-03-06T12:13:17.437Z,95078.77
2019-03-06T12:15:51.386Z,95069.03
2019-03-06T12:18:22.846Z,95070.48
2019-03-06T12:20:51.571Z,95076.28
2019-03-06T12:23:20.482Z,95076.89
2019-03-06T12:25:49.206Z,95071.95
2019-03-06T12:28:18.147Z,95069.15
2019-03-06T12:30:47.183Z,95069.44
2019-03-06T12:33:21.427Z,95063.37
2019-03-06T12:35:50.155Z,95066.57
2019-03-06T12:38:20.256Z,95058.76
2019-03-06T12:40:49.130Z,95060.97
2019-03-06T12:43:17.789Z,95061.19
2019-03-06T12:46:12.166Z,95059.84
2019-03-06T12:48:40.796Z,95062.80
2019-03-06T12:51:09.425Z,95070.80
2019-03-06T12:53:38.024Z,95060.46
2019-03-06T12:56:06.933Z,95074.98
2019-03-06T12:58:35.562Z,95060.16
2019-03-06T13:01:04.988Z,95061.38
2019-03-06T13:03:33.553Z,95069.37
2019-03-06T13:06:02.118Z,95073.69
2019-03-06T13:08:30.792Z,95073.95
2019-03-06T13:10:59.534Z,95072.38
2019-03-06T13:13:35.440Z,95076.59
2019-03-06T13:15:58.604Z,95079.27
2019-03-06T13:18:28.034Z,95074.54
2019-03-06T13:20:56.616Z,95071.55
2019-03-06T13:23:25.463Z,95071.22
2019-03-06T13:25:54.379Z,95077.62
2019-03-06T13:28:23.022Z,95083.46
2019-03-06T13:30:51.632Z,95077.63
2019-03-06T13:33:30.926Z,95072.54
2019-03-06T13:35:59.608Z,95079.92
2019-03-06T13:38:28.275Z,95082.95
2019-03-06T13:40:56.839Z,95080.95
2019-03-06T13:43:25.519Z,95079.66
2019-03-06T13:45:54.152Z,95083.44
2019-03-06T13:48:22.721Z,95089.22
2019-03-06T13:50:51.420Z,95081.19
2019-03-06T13:53:20.747Z,95085.13
2019-03-06T13:55:49.451Z,95089.34
2019-03-06T13:58:18.921Z,95085.96
2019-03-06T14:00:47.551Z,95089.53
2019-03-06T14:03:16.129Z,95093.53
2019-03-06T14:05:44.814Z,95093.11
2019-03-06T14:08:13.428Z,95084.14
2019-03-06T14:10:41.988Z,95083.43
2019-03-06T14:13:10.524Z,95082.49
2019-03-06T14:15:39.155Z,95086.84
2019-03-06T14:18:11.399Z,95090.52
2019-03-06T14:20:40.108Z,95084.13
2019-03-06T14:23:08.946Z,95092.60
2019-03-06T14:25:37.606Z,95089.81
2019-03-06T14:28:06.587Z,95090.14
2019-03-06T14:30:37.424Z,95095.56
2019-03-06T14:33:06.154Z,95102.56
2019-03-06T14:35:34.998Z,95093.95
2019-03-06T14:38:04.504Z,95103.58
2019-03-06T14:40:34.043Z,95101.26
2019-03-06T14:43:04.971Z,95106.25
2019-03-06T14:45:33.603Z,95110.22
2019-03-06T14:48:02.337Z,95105.91
2019-03-06T14:50:31.002Z,95105.69
2019-03-06T14:52:59.812Z,95107.57
2019-03-06T14:55:28.442Z,95105.14
2019-03-06T14:57:57.164Z,95105.35
2019-03-06T15:00:25.735Z,95104.38
2019-03-06T15:02:54.375Z,95103.25
2019-03-06T15:05:23.538Z,95099.94
2019-03-06T15:07:52.379Z,95109.50
2019-03-06T15:10:21.506Z,95108.37
2019-03-06T15:12:50.184Z,95105.43
2019-03-06T15:15:20.901Z,95106.13
2019-03-06T15:17:49.564Z,95102.34
2019-03-06T15:20:24.033Z,95104.89
2019-03-06T15:22:54.172Z,95105.94
2019-03-06T15:25:24.896Z,95104.02
2019-03-06T15:27:53.670Z,95109.13
2019-03-06T15:30:22.676Z,95110.40
2019-03-06T15:32:51.301Z,95123.44
2019-03-06T15:35:20.551Z,95127.11
2019-03-06T15:37:49.388Z,95129.86
2019-03-06T15:40:22.355Z,95134.00
2019-03-06T15:42:51.320Z,95134.77
2019-03-06T15:45:21.727Z,95144.58
2019-03-06T15:47:50.456Z,95142.35
2019-03-06T15:50:19.418Z,95134.70
2019-03-06T15:52:48.148Z,95146.06
2019-03-06T15:55:19.692Z,95148.98
2019-03-06T15:57:48.570Z,95147.36
2019-03-06T16:00:24.218Z,95161.25
2019-03-06T16:02:52.889Z,95156.40
2019-03-06T16:05:21.684Z,95160.65
2019-03-06T16:07:50.316Z,95159.82
2019-03-06T16:10:19.055Z,95167.12
2019-03-06T16:12:48.723Z,95171.85
2019-03-06T16:15:17.351Z,95173.40
2019-03-06T16:17:46.026Z,95174.41
2019-03-06T16:20:17.384Z,95173.99
2019-03-06T16:22:46.592Z,95181.81
2019-03-06T16:25:15.617Z,95185.23
2019-03-06T16:27:44.484Z,95188.56
2019-03-06T16:30:21.912Z,95188.53
2019-03-06T16:32:50.770Z,95186.57
2019-03-06T16:35:19.483Z,95187.75
2019-03-06T16:37:48.212Z,95189.05
2019-03-06T16:42:55.137Z,95192.09
2019-03-06T16:45:30.983Z,95191.87
2019-03-06T16:48:00.556Z,95197.86
2019-03-06T16:50:29.200Z,95204.44
2019-03-06T16:52:58.095Z,95203.53
2019-03-06T16:55:27.752Z,95206.20
2019-03-06T16:57:57.371Z,95212.08
2019-03-06T17:00:33.617Z,95220.41
2019-03-06T17:03:06.247Z,95217.83
2019-03-06T17:05:35.464Z,95221.37
2019-03-06T17:08:05.199Z,95224.17
2019-03-06T17:10:38.692Z,95226.49
2019-03-06T17:13:07.529Z,95229.58
2019-03-06T17:15:36.338Z,95234.50
2019-03-06T17:18:11.054Z,95242.73
2019-03-06T17:20:39.686Z,95242.29
2019-03-06T17:23:08.363Z,95245.20
2019-03-06T17:25:37.027Z,95239.70
2019-03-06T17:28:06.139Z,95244.11
2019-03-06T17:30:35.885Z,95251.61
2019-03-06T17:33:10.192Z,95251.91
2019-03-06T17:35:39.391Z,95257.69
2019-03-06T17:38:11.040Z,95260.91
2019-03-06T17:40:40.145Z,95268.08
2019-03-06T17:43:09.200Z,95261.66
2019-03-06T17:45:38.133Z,95260.13
2019-03-06T17:48:07.968Z,95254.64
2019-03-06T17:50:39.597Z,95260.10
2019-03-06T17:53:08.530Z,95260.41
2019-03-06T17:55:37.235Z,95262.38
2019-03-06T17:58:05.866Z,95262.66
2019-03-06T18:00:45.931Z,95259.31
2019-03-06T18:03:16.191Z,95252.86
2019-03-06T18:05:44.993Z,95258.16
2019-03-06T18:08:13.699Z,95254.48
2019-03-06T18:10:42.537Z,95256.74
2019-03-06T18:13:11.648Z,95254.18
2019-03-06T18:15:40.318Z,95246.69
2019-03-06T18:18:08.948Z,95249.24
2019-03-06T18:20:37.647Z,95249.66
2019-03-06T18:23:06.325Z,95253.25
2019-03-06T18:25:34.959Z,95258.10
2019-03-06T18:28:03.672Z,95255.88
2019-03-06T18:30:32.484Z,95264.96
2019-03-06T18:33:01.049Z,95259.28
2019-03-06T18:35:29.967Z,95258.98
2019-03-06T18:37:58.707Z,95257.67
2019-03-06T18:40:27.816Z,95274.66
2019-03-06T18:42:56.452Z,95265.17
2019-03-06T18:45:25.212Z,95266.19
2019-03-06T18:47:53.851Z,95269.01
2019-03-06T18:50:23.650Z,95262.64
2019-03-06T18:52:52.579Z,95261.36
2019-03-06T18:55:24.004Z,95261.48
2019-03-06T18:57:52.719Z,95264.80
2019-03-06T19:00:25.539Z,95269.47
2019-03-06T19:02:54.266Z,95273.61
2019-03-06T19:05:23.065Z,95273.02
2019-03-06T19:07:52.326Z,95268.09
2019-03-06T19:10:22.276Z,95265.27
2019-03-06T19:12:51.257Z,95261.67
2019-03-06T19:15:24.688Z,95265.95
2019-03-06T19:17:53.423Z,95262.05
2019-03-06T19:20:22.644Z,95267.59
2019-03-06T19:22:54.986Z,95258.00
2019-03-06T19:25:23.944Z,95266.50
2019-03-06T19:27:52.648Z,95264.01
2019-03-06T19:30:23.321Z,95260.31
2019-03-06T19:33:09.999Z,95262.22
2019-03-06T19:35:38.632Z,95259.83
2019-03-06T19:38:07.513Z,95267.41
2019-03-06T19:40:36.181Z,95275.35
2019-03-06T19:43:05.070Z,95283.72
2019-03-06T19:45:33.801Z,95284.01
2019-03-06T19:48:02.432Z,95290.33
2019-03-06T19:50:31.128Z,95300.72
2019-03-06T19:52:59.805Z,95305.05
2019-03-06T19:55:28.506Z,95306.29
2019-03-06T19:57:59.114Z,95301.00
2019-03-06T20:00:29.808Z,95309.85
2019-03-06T20:02:59.107Z,95312.16
2019-03-06T20:05:36.076Z,95307.06
2019-03-06T20:08:07.910Z,95308.69
2019-03-06T20:10:43.035Z,95319.57
2019-03-06T20:13:12.367Z,95318.06
2019-03-06T20:15:41.813Z,95313.84
2019-03-06T20:18:10.957Z,95318.06
2019-03-06T20:20:39.937Z,95320.67
2019-03-06T20:23:08.770Z,95320.23
2019-03-06T20:25:37.440Z,95320.87
2019-03-06T20:28:06.237Z,95320.60
2019-03-06T20:30:34.973Z,95320.85
2019-03-06T20:33:03.901Z,95323.93
2019-03-06T20:35:32.610Z,95326.38
2019-03-06T20:38:01.844Z,95320.70
2019-03-06T20:40:30.577Z,95321.80
2019-03-06T20:42:59.210Z,95326.84
2019-03-06T20:45:27.843Z,95326.17
2019-03-06T20:47:56.608Z,95321.06
2019-03-06T20:50:25.245Z,95329.11
2019-03-06T20:52:54.085Z,95337.92
2019-03-06T20:55:22.771Z,95340.18
2019-03-06T20:57:51.742Z,95337.48
2019-03-06T21:00:23.625Z,95332.33
2019-03-06T21:02:52.371Z,95347.70
2019-03-06T21:05:21.190Z,95346.52
2019-03-06T21:07:49.923Z,95344.56
2019-03-06T21:10:19.317Z,95346.70
2019-03-06T21:12:47.945Z,95346.34
2019-03-06T21:15:20.854Z,95338.53
2019-03-06T21:17:49.578Z,95323.97
2019-03-06T21:20:22.224Z,95338.34
2019-03-06T21:22:50.953Z,95344.16
2019-03-06T21:25:20.722Z,95343.70
2019-03-06T21:27:49.635Z,95341.92
2019-03-06T21:30:30.762Z,95347.44
2019-03-06T21:32:59.460Z,95339.52
2019-03-06T21:35:28.089Z,95334.33
2019-03-06T21:37:56.701Z,95340.11
2019-03-06T21:40:25.347Z,95337.40
2019-03-06T21:42:53.998Z,95341.48
2019-03-06T21:45:22.879Z,95346.70
2019-03-06T21:47:51.590Z,95341.48
2019-03-06T21:50:20.713Z,95343.37
2019-03-06T21:52:49.324Z,95341.07
2019-03-06T21:55:18.253Z,95343.89
2019-03-06T21:57:47.374Z,95344.22
2019-03-06T22:00:23.761Z,95346.97
2019-03-06T22:02:52.463Z,95352.25
2019-03-06T22:05:21.205Z,95360.09
2019-03-06T22:07:50.773Z,95352.50
2019-03-06T22:10:20.039Z,95354.27
2019-03-06T22:12:48.608Z,95355.23
2019-03-06T22:15:21.998Z,95361.16
2019-03-06T22:17:50.632Z,95348.47
2019-03-06T22:20:22.126Z,95356.73
2019-03-06T22:22:50.675Z,95349.79
2019-03-06T22:25:19.497Z,95349.10
2019-03-06T22:27:48.269Z,95348.85
2019-03-06T22:30:22.835Z,95350.34
2019-03-06T22:32:52.017Z,95359.21
2019-03-06T22:35:20.781Z,95366.43
2019-03-06T22:37:49.390Z,95363.02
2019-03-06T22:40:19.504Z,95358.59
2019-03-06T22:42:48.481Z,95361.73
2019-03-06T22:45:18.715Z,95336.94
2019-03-06T22:47:47.352Z,95353.56
2019-03-06T22:50:17.029Z,95357.10
2019-03-06T22:52:48.637Z,95350.70
2019-03-06T22:55:18.372Z,95351.73
2019-03-06T22:57:47.036Z,95354.75
2019-03-06T23:00:30.635Z,95349.98
2019-03-06T23:02:59.370Z,95356.19
2019-03-06T23:05:29.794Z,95356.12
2019-03-06T23:07:58.389Z,95347.83
2019-03-06T23:10:27.108Z,95344.85
2019-03-06T23:12:55.591Z,95344.02
2019-03-06T23:15:24.273Z,95351.92
2019-03-06T23:17:52.911Z,95343.39
2019-03-06T23:20:21.555Z,95339.97
2019-03-06T23:22:50.102Z,95343.20
2019-03-06T23:25:18.662Z,95348.46
2019-03-06T23:27:47.292Z,95344.02
2019-03-06T23:30:16.971Z,95342.91
2019-03-06T23:32:45.711Z,95340.84
2019-03-06T23:35:14.293Z,95332.76
2019-03-06T23:37:42.956Z,95330.33
2019-03-06T23:40:12.197Z,95333.68
2019-03-06T23:42:40.827Z,95333.28
2019-03-06T23:45:13.405Z,95334.23
2019-03-06T23:47:42.226Z,95335.00
2019-03-06T23:50:12.262Z,95329.45
2019-03-06T23:52:59.053Z,95336.91
2019-03-06T23:55:29.435Z,95332.83
2019-03-06T23:57:58.346Z,95344.55
